sensor_id;sensor_type;location;lat;lon;timestamp;temperature;humidity
13369;DHT22;6753;52.520;13.450;2022-09-09T00:00:11;23.90;64.40
13369;DHT22;6753;52.520;13.450;2022-09-09T00:00:22;23.90;64.20
13369;DHT22;6753;52.520;13.450;2022-09-09T00:00:37;23.90;64.40
13369;DHT22;6753;52.520;13.450;2022-09-09T00:00:58;23.90;64.30
13369;DHT22;6753;52.520;13.450;2022-09-09T00:01:20;23.90;64.30
13369;DHT22;6753;52.520;13.450;2022-09-09T00:01:40;23.90;64.30
13369;DHT22;6753;52.520;13.450;2022-09-09T00:01:59;23.90;64.30
13369;DHT22;6753;52.520;13.450;2022-09-09T00:02:19;23.90;64.10
13369;DHT22;6753;52.520;13.450;2022-09-09T00:02:30;23.90;64.00
13369;DHT22;6753;52.520;13.450;2022-09-09T00:02:44;23.90;64.00
13369;DHT22;6753;52.520;13.450;2022-09-09T00:03:03;23.90;63.90
13369;DHT22;6753;52.520;13.450;2022-09-09T00:03:18;23.90;63.90
13369;DHT22;6753;52.520;13.450;2022-09-09T00:03:36;23.90;63.80
13369;DHT22;6753;52.520;13.450;2022-09-09T00:03:54;23.90;63.80
13369;DHT22;6753;52.520;13.450;2022-09-09T00:04:13;23.90;63.80
13369;DHT22;6753;52.520;13.450;2022-09-09T00:04:27;23.90;63.80
13369;DHT22;6753;52.520;13.450;2022-09-09T00:04:39;23.90;63.80
13369;DHT22;6753;52.520;13.450;2022-09-09T00:04:58;23.90;63.80
13369;DHT22;6753;52.520;13.450;2022-09-09T00:05:19;23.90;63.80
13369;DHT22;6753;52.520;13.450;2022-09-09T00:05:42;23.90;64.00
13369;DHT22;6753;52.520;13.450;2022-09-09T00:06:01;23.90;63.80
13369;DHT22;6753;52.520;13.450;2022-09-09T00:06:21;23.90;63.70
13369;DHT22;6753;52.520;13.450;2022-09-09T00:06:37;23.90;63.90
13369;DHT22;6753;52.520;13.450;2022-09-09T00:06:58;23.90;63.70
13369;DHT22;6753;52.520;13.450;2022-09-09T00:07:15;23.90;63.70
13369;DHT22;6753;52.520;13.450;2022-09-09T00:07:38;23.90;63.60
13369;DHT22;6753;52.520;13.450;2022-09-09T00:07:55;23.90;63.60
13369;DHT22;6753;52.520;13.450;2022-09-09T00:08:15;23.90;63.60
13369;DHT22;6753;52.520;13.450;2022-09-09T00:08:38;23.90;63.60
13369;DHT22;6753;52.520;13.450;2022-09-09T00:09:01;23.90;63.60
13369;DHT22;6753;52.520;13.450;2022-09-09T00:09:16;23.90;63.60
13369;DHT22;6753;52.520;13.450;2022-09-09T00:09:29;23.90;63.80
13369;DHT22;6753;52.520;13.450;2022-09-09T00:09:46;23.90;63.50
13369;DHT22;6753;52.520;13.450;2022-09-09T00:10:09;23.90;63.60
13369;DHT22;6753;52.520;13.450;2022-09-09T00:10:28;23.90;63.60
13369;DHT22;6753;52.520;13.450;2022-09-09T00:10:40;23.90;63.50
13369;DHT22;6753;52.520;13.450;2022-09-09T00:10:56;23.90;63.50
13369;DHT22;6753;52.520;13.450;2022-09-09T00:11:12;23.90;63.50
13369;DHT22;6753;52.520;13.450;2022-09-09T00:11:29;23.90;63.50
13369;DHT22;6753;52.520;13.450;2022-09-09T00:11:46;23.90;63.40
13369;DHT22;6753;52.520;13.450;2022-09-09T00:12:02;23.90;63.40
13369;DHT22;6753;52.520;13.450;2022-09-09T00:12:19;23.90;63.40
13369;DHT22;6753;52.520;13.450;2022-09-09T00:12:38;23.90;63.40
13369;DHT22;6753;52.520;13.450;2022-09-09T00:13:07;23.90;63.40
13369;DHT22;6753;52.520;13.450;2022-09-09T00:13:20;23.90;63.30
13369;DHT22;6753;52.520;13.450;2022-09-09T00:13:38;23.90;63.60
13369;DHT22;6753;52.520;13.450;2022-09-09T00:13:52;23.90;63.40
13369;DHT22;6753;52.520;13.450;2022-09-09T00:14:11;23.90;63.30
13369;DHT22;6753;52.520;13.450;2022-09-09T00:14:29;23.90;63.30
13369;DHT22;6753;52.520;13.450;2022-09-09T00:14:49;23.90;63.40
13369;DHT22;6753;52.520;13.450;2022-09-09T00:15:07;23.90;63.40
13369;DHT22;6753;52.520;13.450;2022-09-09T00:15:25;23.90;63.40
13369;DHT22;6753;52.520;13.450;2022-09-09T00:15:42;23.80;63.30
13369;DHT22;6753;52.520;13.450;2022-09-09T00:16:04;23.80;63.30
13369;DHT22;6753;52.520;13.450;2022-09-09T00:16:19;23.90;63.70
13369;DHT22;6753;52.520;13.450;2022-09-09T00:16:35;23.90;63.40
13369;DHT22;6753;52.520;13.450;2022-09-09T00:16:51;23.80;63.30
13369;DHT22;6753;52.520;13.450;2022-09-09T00:17:39;23.80;63.40
13369;DHT22;6753;52.520;13.450;2022-09-09T00:17:58;23.80;63.40
13369;DHT22;6753;52.520;13.450;2022-09-09T00:18:19;23.80;63.40
13369;DHT22;6753;52.520;13.450;2022-09-09T00:18:38;23.80;63.50
13369;DHT22;6753;52.520;13.450;2022-09-09T00:18:56;23.80;63.40
13369;DHT22;6753;52.520;13.450;2022-09-09T00:19:20;23.80;63.40
13369;DHT22;6753;52.520;13.450;2022-09-09T00:19:37;23.80;63.50
13369;DHT22;6753;52.520;13.450;2022-09-09T00:19:58;23.80;63.50
13369;DHT22;6753;52.520;13.450;2022-09-09T00:20:12;23.90;63.70
13369;DHT22;6753;52.520;13.450;2022-09-09T00:20:31;23.90;63.40
13369;DHT22;6753;52.520;13.450;2022-09-09T00:20:49;23.80;63.40
13369;DHT22;6753;52.520;13.450;2022-09-09T00:21:07;23.80;63.60
13369;DHT22;6753;52.520;13.450;2022-09-09T00:21:18;23.80;63.80
13369;DHT22;6753;52.520;13.450;2022-09-09T00:21:33;23.70;63.80
13369;DHT22;6753;52.520;13.450;2022-09-09T00:21:48;23.70;63.80
13369;DHT22;6753;52.520;13.450;2022-09-09T00:22:14;23.80;63.70
13369;DHT22;6753;52.520;13.450;2022-09-09T00:22:28;23.80;63.70
13369;DHT22;6753;52.520;13.450;2022-09-09T00:22:57;23.80;63.70
13369;DHT22;6753;52.520;13.450;2022-09-09T00:23:17;23.70;63.60
13369;DHT22;6753;52.520;13.450;2022-09-09T00:23:32;23.70;63.90
13369;DHT22;6753;52.520;13.450;2022-09-09T00:23:49;23.70;63.70
13369;DHT22;6753;52.520;13.450;2022-09-09T00:24:08;23.80;63.70
13369;DHT22;6753;52.520;13.450;2022-09-09T00:24:26;23.70;63.60
13369;DHT22;6753;52.520;13.450;2022-09-09T00:24:43;23.70;63.60
13369;DHT22;6753;52.520;13.450;2022-09-09T00:24:55;23.70;63.60
13369;DHT22;6753;52.520;13.450;2022-09-09T00:25:17;23.60;63.50
13369;DHT22;6753;52.520;13.450;2022-09-09T00:25:37;23.60;63.60
13369;DHT22;6753;52.520;13.450;2022-09-09T00:25:57;23.70;63.60
13369;DHT22;6753;52.520;13.450;2022-09-09T00:26:16;23.70;63.60
13369;DHT22;6753;52.520;13.450;2022-09-09T00:26:35;23.70;63.60
13369;DHT22;6753;52.520;13.450;2022-09-09T00:26:53;23.50;63.40
13369;DHT22;6753;52.520;13.450;2022-09-09T00:27:13;23.60;63.60
13369;DHT22;6753;52.520;13.450;2022-09-09T00:27:29;23.60;63.60
13369;DHT22;6753;52.520;13.450;2022-09-09T00:27:44;23.50;63.60
13369;DHT22;6753;52.520;13.450;2022-09-09T00:27:56;23.50;63.60
13369;DHT22;6753;52.520;13.450;2022-09-09T00:28:13;23.50;63.60
13369;DHT22;6753;52.520;13.450;2022-09-09T00:28:28;23.50;63.60
13369;DHT22;6753;52.520;13.450;2022-09-09T00:28:48;23.50;63.60
13369;DHT22;6753;52.520;13.450;2022-09-09T00:29:10;23.50;63.60
13369;DHT22;6753;52.520;13.450;2022-09-09T00:29:33;23.50;63.50
13369;DHT22;6753;52.520;13.450;2022-09-09T00:29:53;23.50;63.50
13369;DHT22;6753;52.520;13.450;2022-09-09T00:30:15;23.50;63.50
13369;DHT22;6753;52.520;13.450;2022-09-09T00:30:34;23.50;63.60
13369;DHT22;6753;52.520;13.450;2022-09-09T00:30:46;23.50;63.60
13369;DHT22;6753;52.520;13.450;2022-09-09T00:31:04;23.50;63.60
13369;DHT22;6753;52.520;13.450;2022-09-09T00:31:23;23.40;63.60
13369;DHT22;6753;52.520;13.450;2022-09-09T00:31:35;23.40;63.60
13369;DHT22;6753;52.520;13.450;2022-09-09T00:31:47;23.40;63.70
13369;DHT22;6753;52.520;13.450;2022-09-09T00:32:04;23.40;63.60
13369;DHT22;6753;52.520;13.450;2022-09-09T00:32:17;23.40;63.60
13369;DHT22;6753;52.520;13.450;2022-09-09T00:32:30;23.40;63.60
13369;DHT22;6753;52.520;13.450;2022-09-09T00:32:45;23.40;63.60
13369;DHT22;6753;52.520;13.450;2022-09-09T00:33:05;23.40;63.60
13369;DHT22;6753;52.520;13.450;2022-09-09T00:33:23;23.40;63.50
13369;DHT22;6753;52.520;13.450;2022-09-09T00:33:36;23.40;63.50
13369;DHT22;6753;52.520;13.450;2022-09-09T00:33:49;23.40;63.50
13369;DHT22;6753;52.520;13.450;2022-09-09T00:34:08;23.40;63.50
13369;DHT22;6753;52.520;13.450;2022-09-09T00:34:23;23.40;63.50
13369;DHT22;6753;52.520;13.450;2022-09-09T00:34:36;23.40;63.50
13369;DHT22;6753;52.520;13.450;2022-09-09T00:34:54;23.40;63.50
13369;DHT22;6753;52.520;13.450;2022-09-09T00:35:16;23.40;63.50
13369;DHT22;6753;52.520;13.450;2022-09-09T00:35:32;23.40;63.50
13369;DHT22;6753;52.520;13.450;2022-09-09T00:35:46;23.40;63.50
13369;DHT22;6753;52.520;13.450;2022-09-09T00:35:58;23.40;63.70
13369;DHT22;6753;52.520;13.450;2022-09-09T00:36:13;23.40;63.50
13369;DHT22;6753;52.520;13.450;2022-09-09T00:36:31;23.40;63.50
13369;DHT22;6753;52.520;13.450;2022-09-09T00:36:43;23.40;63.50
13369;DHT22;6753;52.520;13.450;2022-09-09T00:36:56;23.40;63.50
13369;DHT22;6753;52.520;13.450;2022-09-09T00:37:08;23.40;63.50
13369;DHT22;6753;52.520;13.450;2022-09-09T00:37:21;23.40;63.50
13369;DHT22;6753;52.520;13.450;2022-09-09T00:37:33;23.40;63.50
13369;DHT22;6753;52.520;13.450;2022-09-09T00:37:48;23.40;63.50
13369;DHT22;6753;52.520;13.450;2022-09-09T00:38:03;23.30;63.40
13369;DHT22;6753;52.520;13.450;2022-09-09T00:38:19;23.40;63.50
13369;DHT22;6753;52.520;13.450;2022-09-09T00:38:40;23.40;63.50
13369;DHT22;6753;52.520;13.450;2022-09-09T00:38:56;23.40;63.50
13369;DHT22;6753;52.520;13.450;2022-09-09T00:39:12;23.40;63.50
13369;DHT22;6753;52.520;13.450;2022-09-09T00:39:31;23.30;63.40
13369;DHT22;6753;52.520;13.450;2022-09-09T00:39:46;23.40;63.50
13369;DHT22;6753;52.520;13.450;2022-09-09T00:40:01;23.40;63.50
13369;DHT22;6753;52.520;13.450;2022-09-09T00:40:22;23.40;63.50
13369;DHT22;6753;52.520;13.450;2022-09-09T00:40:36;23.30;63.40
13369;DHT22;6753;52.520;13.450;2022-09-09T00:40:55;23.40;63.50
13369;DHT22;6753;52.520;13.450;2022-09-09T00:41:14;23.40;63.50
13369;DHT22;6753;52.520;13.450;2022-09-09T00:41:36;23.40;63.60
13369;DHT22;6753;52.520;13.450;2022-09-09T00:42:02;23.40;63.50
13369;DHT22;6753;52.520;13.450;2022-09-09T00:42:16;23.40;63.50
13369;DHT22;6753;52.520;13.450;2022-09-09T00:42:35;23.40;63.40
13369;DHT22;6753;52.520;13.450;2022-09-09T00:43:00;23.30;63.40
13369;DHT22;6753;52.520;13.450;2022-09-09T00:43:25;23.30;63.50
13369;DHT22;6753;52.520;13.450;2022-09-09T00:43:39;23.30;63.50
13369;DHT22;6753;52.520;13.450;2022-09-09T00:43:57;23.30;63.50
13369;DHT22;6753;52.520;13.450;2022-09-09T00:44:20;23.30;63.50
13369;DHT22;6753;52.520;13.450;2022-09-09T00:44:36;23.30;63.50
13369;DHT22;6753;52.520;13.450;2022-09-09T00:45:01;23.30;63.60
13369;DHT22;6753;52.520;13.450;2022-09-09T00:45:25;23.20;63.50
13369;DHT22;6753;52.520;13.450;2022-09-09T00:46:00;23.20;63.50
13369;DHT22;6753;52.520;13.450;2022-09-09T00:46:32;23.20;63.50
13369;DHT22;6753;52.520;13.450;2022-09-09T00:47:12;23.30;63.60
13369;DHT22;6753;52.520;13.450;2022-09-09T00:47:40;23.30;63.60
13369;DHT22;6753;52.520;13.450;2022-09-09T00:47:54;23.20;63.50
13369;DHT22;6753;52.520;13.450;2022-09-09T00:48:07;23.30;63.80
13369;DHT22;6753;52.520;13.450;2022-09-09T00:48:24;23.30;63.60
13369;DHT22;6753;52.520;13.450;2022-09-09T00:48:47;23.30;63.60
13369;DHT22;6753;52.520;13.450;2022-09-09T00:49:07;23.30;63.60
13369;DHT22;6753;52.520;13.450;2022-09-09T00:49:32;23.20;63.50
13369;DHT22;6753;52.520;13.450;2022-09-09T00:49:56;23.20;63.50
13369;DHT22;6753;52.520;13.450;2022-09-09T00:50:37;23.20;63.50
13369;DHT22;6753;52.520;13.450;2022-09-09T00:50:55;23.20;63.50
13369;DHT22;6753;52.520;13.450;2022-09-09T00:51:17;23.20;63.50
13369;DHT22;6753;52.520;13.450;2022-09-09T00:51:41;23.20;63.50
13369;DHT22;6753;52.520;13.450;2022-09-09T00:52:03;23.20;63.50
13369;DHT22;6753;52.520;13.450;2022-09-09T00:52:26;23.20;63.50
13369;DHT22;6753;52.520;13.450;2022-09-09T00:52:47;23.20;63.50
13369;DHT22;6753;52.520;13.450;2022-09-09T00:53:12;23.20;63.50
13369;DHT22;6753;52.520;13.450;2022-09-09T00:53:36;23.20;63.40
13369;DHT22;6753;52.520;13.450;2022-09-09T00:54:12;23.20;63.50
13369;DHT22;6753;52.520;13.450;2022-09-09T00:54:37;23.20;63.50
13369;DHT22;6753;52.520;13.450;2022-09-09T00:54:56;23.20;63.50
13369;DHT22;6753;52.520;13.450;2022-09-09T00:55:16;23.20;63.40
13369;DHT22;6753;52.520;13.450;2022-09-09T00:55:37;23.20;63.40
13369;DHT22;6753;52.520;13.450;2022-09-09T00:55:58;23.20;63.40
13369;DHT22;6753;52.520;13.450;2022-09-09T00:56:13;23.20;63.40
13369;DHT22;6753;52.520;13.450;2022-09-09T00:56:27;23.20;63.40
13369;DHT22;6753;52.520;13.450;2022-09-09T00:56:46;23.20;63.40
13369;DHT22;6753;52.520;13.450;2022-09-09T00:57:11;23.20;63.40
13369;DHT22;6753;52.520;13.450;2022-09-09T00:57:27;23.20;63.40
13369;DHT22;6753;52.520;13.450;2022-09-09T00:57:38;23.20;63.40
13369;DHT22;6753;52.520;13.450;2022-09-09T00:57:52;23.20;63.40
13369;DHT22;6753;52.520;13.450;2022-09-09T00:58:06;23.20;63.40
13369;DHT22;6753;52.520;13.450;2022-09-09T00:58:18;23.20;63.40
13369;DHT22;6753;52.520;13.450;2022-09-09T00:58:29;23.20;63.40
13369;DHT22;6753;52.520;13.450;2022-09-09T00:58:42;23.20;63.40
13369;DHT22;6753;52.520;13.450;2022-09-09T00:58:59;23.20;63.40
13369;DHT22;6753;52.520;13.450;2022-09-09T00:59:24;23.20;63.50
13369;DHT22;6753;52.520;13.450;2022-09-09T00:59:45;23.20;63.60
13369;DHT22;6753;52.520;13.450;2022-09-09T01:00:16;23.20;63.50
13369;DHT22;6753;52.520;13.450;2022-09-09T01:00:30;23.20;63.50
13369;DHT22;6753;52.520;13.450;2022-09-09T01:00:45;23.20;63.50
13369;DHT22;6753;52.520;13.450;2022-09-09T01:01:00;23.20;63.50
13369;DHT22;6753;52.520;13.450;2022-09-09T01:01:14;23.20;63.50
13369;DHT22;6753;52.520;13.450;2022-09-09T01:01:27;23.20;63.50
13369;DHT22;6753;52.520;13.450;2022-09-09T01:01:42;23.20;63.50
13369;DHT22;6753;52.520;13.450;2022-09-09T01:01:53;23.10;63.50
13369;DHT22;6753;52.520;13.450;2022-09-09T01:02:08;23.10;63.50
13369;DHT22;6753;52.520;13.450;2022-09-09T01:02:27;23.10;63.50
13369;DHT22;6753;52.520;13.450;2022-09-09T01:02:45;23.10;63.50
13369;DHT22;6753;52.520;13.450;2022-09-09T01:03:18;23.10;63.50
13369;DHT22;6753;52.520;13.450;2022-09-09T01:03:35;23.10;63.60
13369;DHT22;6753;52.520;13.450;2022-09-09T01:03:50;23.10;63.60
13369;DHT22;6753;52.520;13.450;2022-09-09T01:04:05;23.10;63.60
13369;DHT22;6753;52.520;13.450;2022-09-09T01:04:26;23.10;63.60
13369;DHT22;6753;52.520;13.450;2022-09-09T01:04:39;23.10;63.60
13369;DHT22;6753;52.520;13.450;2022-09-09T01:04:52;23.10;63.60
13369;DHT22;6753;52.520;13.450;2022-09-09T01:05:10;23.10;63.60
13369;DHT22;6753;52.520;13.450;2022-09-09T01:05:30;23.10;63.60
13369;DHT22;6753;52.520;13.450;2022-09-09T01:05:48;23.10;63.60
13369;DHT22;6753;52.520;13.450;2022-09-09T01:06:12;23.10;63.70
13369;DHT22;6753;52.520;13.450;2022-09-09T01:06:29;23.10;63.70
13369;DHT22;6753;52.520;13.450;2022-09-09T01:06:43;23.10;63.70
13369;DHT22;6753;52.520;13.450;2022-09-09T01:07:01;23.10;63.70
13369;DHT22;6753;52.520;13.450;2022-09-09T01:07:16;23.00;63.60
13369;DHT22;6753;52.520;13.450;2022-09-09T01:07:28;23.00;63.60
13369;DHT22;6753;52.520;13.450;2022-09-09T01:07:39;23.00;63.60
13369;DHT22;6753;52.520;13.450;2022-09-09T01:07:51;23.00;63.60
13369;DHT22;6753;52.520;13.450;2022-09-09T01:08:07;23.10;63.60
13369;DHT22;6753;52.520;13.450;2022-09-09T01:08:39;23.10;63.60
13369;DHT22;6753;52.520;13.450;2022-09-09T01:09:04;23.10;63.60
13369;DHT22;6753;52.520;13.450;2022-09-09T01:09:21;23.00;63.60
13369;DHT22;6753;52.520;13.450;2022-09-09T01:09:38;23.00;63.60
13369;DHT22;6753;52.520;13.450;2022-09-09T01:09:56;23.00;63.60
13369;DHT22;6753;52.520;13.450;2022-09-09T01:10:11;23.00;63.60
13369;DHT22;6753;52.520;13.450;2022-09-09T01:10:30;23.00;63.60
13369;DHT22;6753;52.520;13.450;2022-09-09T01:10:50;23.00;63.60
13369;DHT22;6753;52.520;13.450;2022-09-09T01:11:01;23.00;63.60
13369;DHT22;6753;52.520;13.450;2022-09-09T01:11:17;23.00;63.70
13369;DHT22;6753;52.520;13.450;2022-09-09T01:11:36;23.00;63.70
13369;DHT22;6753;52.520;13.450;2022-09-09T01:11:57;23.00;63.70
13369;DHT22;6753;52.520;13.450;2022-09-09T01:12:15;23.00;63.70
13369;DHT22;6753;52.520;13.450;2022-09-09T01:12:35;23.00;63.70
13369;DHT22;6753;52.520;13.450;2022-09-09T01:12:49;23.00;63.70
13369;DHT22;6753;52.520;13.450;2022-09-09T01:13:08;23.00;63.70
13369;DHT22;6753;52.520;13.450;2022-09-09T01:13:26;23.00;63.80
13369;DHT22;6753;52.520;13.450;2022-09-09T01:13:38;23.00;63.80
13369;DHT22;6753;52.520;13.450;2022-09-09T01:13:53;23.00;63.80
13369;DHT22;6753;52.520;13.450;2022-09-09T01:14:14;23.00;63.80
13369;DHT22;6753;52.520;13.450;2022-09-09T01:14:40;23.00;63.80
13369;DHT22;6753;52.520;13.450;2022-09-09T01:15:03;23.00;63.80
13369;DHT22;6753;52.520;13.450;2022-09-09T01:15:22;23.00;63.80
13369;DHT22;6753;52.520;13.450;2022-09-09T01:15:37;23.00;63.80
13369;DHT22;6753;52.520;13.450;2022-09-09T01:15:49;23.00;63.80
13369;DHT22;6753;52.520;13.450;2022-09-09T01:16:06;23.00;63.80
13369;DHT22;6753;52.520;13.450;2022-09-09T01:16:18;23.00;63.80
13369;DHT22;6753;52.520;13.450;2022-09-09T01:16:31;23.10;63.80
13369;DHT22;6753;52.520;13.450;2022-09-09T01:16:43;23.00;63.80
13369;DHT22;6753;52.520;13.450;2022-09-09T01:16:57;23.00;63.80
13369;DHT22;6753;52.520;13.450;2022-09-09T01:17:14;23.00;63.80
13369;DHT22;6753;52.520;13.450;2022-09-09T01:17:28;23.00;63.80
13369;DHT22;6753;52.520;13.450;2022-09-09T01:17:50;23.00;63.80
13369;DHT22;6753;52.520;13.450;2022-09-09T01:18:09;23.00;63.80
13369;DHT22;6753;52.520;13.450;2022-09-09T01:18:23;23.00;63.80
13369;DHT22;6753;52.520;13.450;2022-09-09T01:18:39;23.00;63.80
13369;DHT22;6753;52.520;13.450;2022-09-09T01:18:52;23.00;63.80
13369;DHT22;6753;52.520;13.450;2022-09-09T01:19:05;23.00;63.80
13369;DHT22;6753;52.520;13.450;2022-09-09T01:19:27;23.00;63.80
13369;DHT22;6753;52.520;13.450;2022-09-09T01:19:51;23.10;63.80
13369;DHT22;6753;52.520;13.450;2022-09-09T01:20:17;23.00;63.80
13369;DHT22;6753;52.520;13.450;2022-09-09T01:20:33;23.00;63.80
13369;DHT22;6753;52.520;13.450;2022-09-09T01:20:51;23.00;63.80
13369;DHT22;6753;52.520;13.450;2022-09-09T01:21:17;23.10;63.90
13369;DHT22;6753;52.520;13.450;2022-09-09T01:21:37;23.40;64.30
13369;DHT22;6753;52.520;13.450;2022-09-09T01:21:59;23.00;63.80
13369;DHT22;6753;52.520;13.450;2022-09-09T01:22:18;23.10;63.90
13369;DHT22;6753;52.520;13.450;2022-09-09T01:22:35;23.10;63.90
13369;DHT22;6753;52.520;13.450;2022-09-09T01:22:57;23.00;63.80
13369;DHT22;6753;52.520;13.450;2022-09-09T01:23:32;23.00;63.80
13369;DHT22;6753;52.520;13.450;2022-09-09T01:24:04;23.00;63.80
13369;DHT22;6753;52.520;13.450;2022-09-09T01:24:24;23.00;63.80
13369;DHT22;6753;52.520;13.450;2022-09-09T01:24:40;23.10;63.80
13369;DHT22;6753;52.520;13.450;2022-09-09T01:25:19;23.10;63.90
13369;DHT22;6753;52.520;13.450;2022-09-09T01:26:04;23.00;63.80
13369;DHT22;6753;52.520;13.450;2022-09-09T01:26:23;23.00;63.80
13369;DHT22;6753;52.520;13.450;2022-09-09T01:26:41;23.00;63.80
13369;DHT22;6753;52.520;13.450;2022-09-09T01:26:54;23.00;63.80
13369;DHT22;6753;52.520;13.450;2022-09-09T01:27:07;23.10;63.90
13369;DHT22;6753;52.520;13.450;2022-09-09T01:27:19;23.00;63.80
13369;DHT22;6753;52.520;13.450;2022-09-09T01:27:32;23.10;63.80
13369;DHT22;6753;52.520;13.450;2022-09-09T01:27:51;23.10;63.90
13369;DHT22;6753;52.520;13.450;2022-09-09T01:28:06;23.10;63.90
13369;DHT22;6753;52.520;13.450;2022-09-09T01:28:25;23.10;63.80
13369;DHT22;6753;52.520;13.450;2022-09-09T01:28:37;23.10;63.80
13369;DHT22;6753;52.520;13.450;2022-09-09T01:28:51;23.00;63.80
13369;DHT22;6753;52.520;13.450;2022-09-09T01:29:06;23.10;63.80
13369;DHT22;6753;52.520;13.450;2022-09-09T01:29:20;23.10;63.80
13369;DHT22;6753;52.520;13.450;2022-09-09T01:29:32;23.10;63.80
13369;DHT22;6753;52.520;13.450;2022-09-09T01:29:43;23.00;63.80
13369;DHT22;6753;52.520;13.450;2022-09-09T01:29:54;23.10;64.10
13369;DHT22;6753;52.520;13.450;2022-09-09T01:30:09;23.10;63.80
13369;DHT22;6753;52.520;13.450;2022-09-09T01:30:20;23.10;63.80
13369;DHT22;6753;52.520;13.450;2022-09-09T01:30:34;23.00;63.80
13369;DHT22;6753;52.520;13.450;2022-09-09T01:30:45;23.10;63.80
13369;DHT22;6753;52.520;13.450;2022-09-09T01:30:56;23.00;63.70
13369;DHT22;6753;52.520;13.450;2022-09-09T01:31:10;23.10;63.80
13369;DHT22;6753;52.520;13.450;2022-09-09T01:31:27;23.10;63.80
13369;DHT22;6753;52.520;13.450;2022-09-09T01:31:40;23.10;63.80
13369;DHT22;6753;52.520;13.450;2022-09-09T01:31:56;23.10;63.80
13369;DHT22;6753;52.520;13.450;2022-09-09T01:32:39;23.10;63.80
13369;DHT22;6753;52.520;13.450;2022-09-09T01:32:54;23.10;63.80
13369;DHT22;6753;52.520;13.450;2022-09-09T01:33:07;23.10;63.80
13369;DHT22;6753;52.520;13.450;2022-09-09T01:33:20;23.00;63.70
13369;DHT22;6753;52.520;13.450;2022-09-09T01:33:31;23.10;63.80
13369;DHT22;6753;52.520;13.450;2022-09-09T01:33:42;23.10;63.80
13369;DHT22;6753;52.520;13.450;2022-09-09T01:33:55;23.10;63.80
13369;DHT22;6753;52.520;13.450;2022-09-09T01:34:12;23.10;63.80
13369;DHT22;6753;52.520;13.450;2022-09-09T01:34:25;23.10;63.80
13369;DHT22;6753;52.520;13.450;2022-09-09T01:34:39;23.10;63.80
13369;DHT22;6753;52.520;13.450;2022-09-09T01:34:52;23.00;63.70
13369;DHT22;6753;52.520;13.450;2022-09-09T01:35:03;23.10;63.70
13369;DHT22;6753;52.520;13.450;2022-09-09T01:35:26;23.10;63.80
13369;DHT22;6753;52.520;13.450;2022-09-09T01:35:42;23.10;63.80
13369;DHT22;6753;52.520;13.450;2022-09-09T01:35:58;23.10;63.80
13369;DHT22;6753;52.520;13.450;2022-09-09T01:36:15;23.10;63.80
13369;DHT22;6753;52.520;13.450;2022-09-09T01:36:34;23.10;63.80
13369;DHT22;6753;52.520;13.450;2022-09-09T01:36:51;23.00;63.70
13369;DHT22;6753;52.520;13.450;2022-09-09T01:37:05;23.10;63.80
13369;DHT22;6753;52.520;13.450;2022-09-09T01:37:18;23.10;63.80
13369;DHT22;6753;52.520;13.450;2022-09-09T01:37:29;23.00;63.70
13369;DHT22;6753;52.520;13.450;2022-09-09T01:37:40;23.10;63.80
13369;DHT22;6753;52.520;13.450;2022-09-09T01:37:51;23.10;63.80
13369;DHT22;6753;52.520;13.450;2022-09-09T01:38:02;23.10;63.80
13369;DHT22;6753;52.520;13.450;2022-09-09T01:38:14;23.10;63.80
13369;DHT22;6753;52.520;13.450;2022-09-09T01:38:25;23.00;63.70
13369;DHT22;6753;52.520;13.450;2022-09-09T01:38:36;23.10;63.80
13369;DHT22;6753;52.520;13.450;2022-09-09T01:38:48;23.10;63.80
13369;DHT22;6753;52.520;13.450;2022-09-09T01:38:59;23.10;63.80
13369;DHT22;6753;52.520;13.450;2022-09-09T01:39:10;23.10;63.80
13369;DHT22;6753;52.520;13.450;2022-09-09T01:39:22;23.10;63.80
13369;DHT22;6753;52.520;13.450;2022-09-09T01:39:33;23.00;63.70
13369;DHT22;6753;52.520;13.450;2022-09-09T01:39:45;23.10;63.80
13369;DHT22;6753;52.520;13.450;2022-09-09T01:39:56;23.00;63.70
13369;DHT22;6753;52.520;13.450;2022-09-09T01:40:08;23.10;63.80
13369;DHT22;6753;52.520;13.450;2022-09-09T01:40:19;23.00;63.70
13369;DHT22;6753;52.520;13.450;2022-09-09T01:40:30;23.10;63.80
13369;DHT22;6753;52.520;13.450;2022-09-09T01:40:41;23.10;63.80
13369;DHT22;6753;52.520;13.450;2022-09-09T01:40:53;23.10;63.80
13369;DHT22;6753;52.520;13.450;2022-09-09T01:41:08;23.10;63.80
13369;DHT22;6753;52.520;13.450;2022-09-09T01:41:19;23.10;63.80
13369;DHT22;6753;52.520;13.450;2022-09-09T01:41:31;23.10;63.80
13369;DHT22;6753;52.520;13.450;2022-09-09T01:41:42;23.10;63.80
13369;DHT22;6753;52.520;13.450;2022-09-09T01:41:53;23.10;63.80
13369;DHT22;6753;52.520;13.450;2022-09-09T01:42:09;23.10;63.80
13369;DHT22;6753;52.520;13.450;2022-09-09T01:42:22;23.10;63.80
13369;DHT22;6753;52.520;13.450;2022-09-09T01:42:33;23.10;63.80
13369;DHT22;6753;52.520;13.450;2022-09-09T01:42:44;23.10;63.80
13369;DHT22;6753;52.520;13.450;2022-09-09T01:42:56;23.00;63.70
13369;DHT22;6753;52.520;13.450;2022-09-09T01:43:07;23.10;63.80
13369;DHT22;6753;52.520;13.450;2022-09-09T01:43:20;23.10;63.80
13369;DHT22;6753;52.520;13.450;2022-09-09T01:43:30;23.10;63.80
13369;DHT22;6753;52.520;13.450;2022-09-09T01:43:41;23.00;63.70
13369;DHT22;6753;52.520;13.450;2022-09-09T01:43:53;23.00;63.70
13369;DHT22;6753;52.520;13.450;2022-09-09T01:44:05;23.10;63.80
13369;DHT22;6753;52.520;13.450;2022-09-09T01:44:17;23.00;63.70
13369;DHT22;6753;52.520;13.450;2022-09-09T01:44:30;23.10;63.80
13369;DHT22;6753;52.520;13.450;2022-09-09T01:44:44;23.00;63.70
13369;DHT22;6753;52.520;13.450;2022-09-09T01:44:55;23.10;63.80
13369;DHT22;6753;52.520;13.450;2022-09-09T01:45:07;23.00;63.70
13369;DHT22;6753;52.520;13.450;2022-09-09T01:45:18;23.00;63.70
13369;DHT22;6753;52.520;13.450;2022-09-09T01:45:30;23.10;63.80
13369;DHT22;6753;52.520;13.450;2022-09-09T01:45:42;23.10;63.80
13369;DHT22;6753;52.520;13.450;2022-09-09T01:45:56;23.30;63.90
13369;DHT22;6753;52.520;13.450;2022-09-09T01:46:09;23.10;63.80
13369;DHT22;6753;52.520;13.450;2022-09-09T01:46:22;23.10;63.80
13369;DHT22;6753;52.520;13.450;2022-09-09T01:46:34;23.10;63.80
13369;DHT22;6753;52.520;13.450;2022-09-09T01:46:45;23.00;63.70
13369;DHT22;6753;52.520;13.450;2022-09-09T01:46:56;23.00;63.70
13369;DHT22;6753;52.520;13.450;2022-09-09T01:47:07;23.10;63.80
13369;DHT22;6753;52.520;13.450;2022-09-09T01:47:23;23.10;63.80
13369;DHT22;6753;52.520;13.450;2022-09-09T01:47:34;23.10;63.80
13369;DHT22;6753;52.520;13.450;2022-09-09T01:47:46;23.10;63.80
13369;DHT22;6753;52.520;13.450;2022-09-09T01:47:57;23.10;63.80
13369;DHT22;6753;52.520;13.450;2022-09-09T01:48:08;23.00;63.70
13369;DHT22;6753;52.520;13.450;2022-09-09T01:48:21;23.00;63.70